Time;durP1;ratioP1;P1;durP2;ratioP2;P2;SDS_P1;SDS_P2;PMS_P1;PMS_P2;Temp;Humidity;BMP_temperature;BMP_pressure;BME280_temperature;BME280_humidity;BME280_pressure;Samples;Min_cycle;Max_cycle;Signal;HPM_P1;HPM_P2
2021/05/26 00:00:50;;;;;;;16.50;9.02;;;10.40;96.20;;;;;;6182534;23;19997;-66
2021/05/26 00:03:15;;;;;;;12.15;8.48;;;10.50;96.20;;;;;;6183308;23;20008;-68
2021/05/26 00:05:41;;;;;;;17.80;9.13;;;10.40;96.20;;;;;;6182308;23;20028;-66
2021/05/26 00:08:06;;;;;;;16.60;8.65;;;10.40;96.10;;;;;;6183434;23;20445;-67
2021/05/26 00:10:32;;;;;;;14.63;8.75;;;10.40;96.10;;;;;;6182982;23;20001;-67
2021/05/26 00:12:57;;;;;;;17.13;9.15;;;10.40;96.10;;;;;;6182796;23;20012;-68
2021/05/26 00:15:23;;;;;;;14.43;7.35;;;10.50;96.10;;;;;;6183346;23;20370;-66
2021/05/26 00:17:48;;;;;;;10.20;6.60;;;10.50;96.10;;;;;;6183067;23;20496;-67
2021/05/26 00:20:14;;;;;;;8.90;6.03;;;10.60;95.80;;;;;;6182679;23;20005;-66
2021/05/26 00:22:39;;;;;;;14.23;7.10;;;10.60;95.50;;;;;;6183214;23;20001;-65
2021/05/26 00:25:05;;;;;;;9.77;5.90;;;10.70;95.40;;;;;;6182840;23;20016;-67
2021/05/26 00:27:31;;;;;;;11.18;5.88;;;10.70;95.20;;;;;;6182210;23;20322;-67
2021/05/26 00:29:57;;;;;;;10.63;5.80;;;10.80;95.20;;;;;;6183198;23;20007;-67
2021/05/26 00:32:22;;;;;;;11.35;5.95;;;10.80;95.00;;;;;;6183093;23;20423;-67
2021/05/26 00:34:48;;;;;;;11.57;5.80;;;10.80;94.80;;;;;;6181916;23;20084;-66
2021/05/26 00:37:13;;;;;;;12.40;5.90;;;10.80;94.70;;;;;;6183104;23;20005;-67
2021/05/26 00:39:39;;;;;;;10.75;4.78;;;10.80;94.80;;;;;;6183103;23;20001;-67
2021/05/26 00:42:05;;;;;;;7.80;3.53;;;10.70;94.70;;;;;;6182477;23;20009;-68
2021/05/26 00:44:31;;;;;;;5.47;2.80;;;10.60;94.40;;;;;;6182944;23;20001;-67
2021/05/26 00:46:56;;;;;;;4.22;2.72;;;10.60;94.20;;;;;;6183086;23;20422;-66
2021/05/26 00:49:22;;;;;;;4.88;2.40;;;10.50;93.90;;;;;;6182452;23;20005;-65
2021/05/26 00:51:48;;;;;;;3.28;2.00;;;10.40;93.70;;;;;;6156157;23;20017;-66
2021/05/26 00:54:13;;;;;;;3.95;2.20;;;10.30;93.70;;;;;;6182750;23;20002;-65
2021/05/26 00:56:39;;;;;;;2.53;1.60;;;10.30;93.70;;;;;;6182166;23;20072;-65
2021/05/26 00:59:07;;;;;;;7.53;2.72;;;10.20;93.60;;;;;;6182880;23;20047;-66
2021/05/26 01:01:33;;;;;;;3.30;1.60;;;10.20;93.60;;;;;;6182721;23;20044;-65
2021/05/26 01:04:00;;;;;;;4.15;1.98;;;10.20;93.70;;;;;;6182067;23;20048;-64
2021/05/26 01:06:25;;;;;;;4.10;1.75;;;10.20;93.80;;;;;;6183309;23;20001;-64
2021/05/26 01:08:51;;;;;;;4.35;2.00;;;10.20;93.90;;;;;;6182544;23;20309;-66
2021/05/26 01:11:17;;;;;;;3.92;1.90;;;10.30;93.90;;;;;;6182033;23;20394;-65
2021/05/26 01:13:43;;;;;;;5.47;2.05;;;10.30;93.80;;;;;;6155984;23;20005;-65
2021/05/26 01:16:08;;;;;;;3.00;1.70;;;10.40;93.90;;;;;;6182270;23;20423;-65
2021/05/26 01:18:35;;;;;;;2.47;1.70;;;10.40;93.80;;;;;;6182590;23;20060;-66
2021/05/26 01:21:05;;;;;;;5.18;1.95;;;10.30;93.90;;;;;;6182839;23;20315;-66
2021/05/26 01:23:31;;;;;;;6.40;2.30;;;10.30;94.20;;;;;;6182054;23;20391;-66
2021/05/26 01:26:00;;;;;;;3.85;1.83;;;10.30;94.30;;;;;;6156437;23;20016;-65
2021/05/26 01:28:27;;;;;;;3.40;1.70;;;10.30;94.40;;;;;;6156589;23;20300;-66
2021/05/26 01:30:53;;;;;;;4.57;1.92;;;10.30;94.40;;;;;;6181794;23;20097;-65
2021/05/26 01:33:19;;;;;;;7.93;2.00;;;10.30;94.40;;;;;;6183073;23;20295;-65
2021/05/26 01:35:47;;;;;;;3.92;2.03;;;10.40;94.40;;;;;;6182506;23;20067;-65
2021/05/26 01:38:17;;;;;;;3.03;2.35;;;10.30;94.40;;;;;;6181887;23;20415;-65
2021/05/26 01:40:43;;;;;;;4.25;2.08;;;10.40;94.50;;;;;;6182464;23;19997;-66
2021/05/26 01:43:09;;;;;;;7.93;2.60;;;10.40;94.50;;;;;;6182873;23;20004;-66
2021/05/26 01:45:35;;;;;;;5.15;2.40;;;10.40;94.90;;;;;;6183505;23;19997;-65
2021/05/26 01:48:01;;;;;;;3.95;2.28;;;10.30;94.80;;;;;;6184750;23;20433;-65
2021/05/26 01:50:27;;;;;;;5.38;2.20;;;10.30;95.00;;;;;;6185191;23;20005;-67
2021/05/26 01:52:59;;;;;;;5.10;2.00;;;10.30;95.20;;;;;;6183265;23;20115;-63
2021/05/26 01:55:25;;;;;;;3.25;2.17;;;10.20;95.30;;;;;;6184810;23;20075;-67
2021/05/26 01:57:51;;;;;;;5.18;2.50;;;10.20;95.50;;;;;;6184437;23;20009;-67
2021/05/26 02:00:19;;;;;;;3.83;2.00;;;10.10;95.60;;;;;;6184028;23;20062;-67
2021/05/26 02:02:44;;;;;;;4.15;2.33;;;10.10;95.60;;;;;;6184440;23;20012;-66
2021/05/26 02:05:11;;;;;;;4.43;2.50;;;10.20;95.80;;;;;;6184796;23;20005;-66
2021/05/26 02:07:38;;;;;;;4.15;2.50;;;10.20;95.80;;;;;;6184067;23;20001;-67
2021/05/26 02:10:06;;;;;;;2.28;2.08;;;10.20;96.00;;;;;;6184424;23;20029;-65
2021/05/26 02:12:34;;;;;;;4.30;2.10;;;10.30;96.00;;;;;;6183960;23;20151;-64
2021/05/26 02:15:03;;;;;;;2.45;1.77;;;10.40;96.10;;;;;;6184380;23;20011;-66
2021/05/26 02:17:29;;;;;;;3.67;1.98;;;10.40;95.90;;;;;;6184613;23;20055;-64
2021/05/26 02:19:56;;;;;;;3.33;1.67;;;10.40;95.80;;;;;;6183613;23;20354;-64
2021/05/26 02:22:22;;;;;;;2.63;1.50;;;10.40;95.80;;;;;;6184583;23;19997;-64
2021/05/26 02:24:48;;;;;;;2.53;1.60;;;10.40;95.90;;;;;;6157277;23;20013;-64
2021/05/26 02:27:14;;;;;;;3.35;1.73;;;10.40;95.80;;;;;;6183359;23;20001;-64
2021/05/26 02:29:40;;;;;;;3.50;2.05;;;10.40;95.80;;;;;;6184150;23;20005;-65
2021/05/26 02:32:06;;;;;;;4.13;1.98;;;10.40;95.90;;;;;;6184270;23;20020;-64
2021/05/26 02:34:33;;;;;;;4.00;2.10;;;10.40;95.90;;;;;;6183249;23;20005;-66
2021/05/26 02:36:58;;;;;;;4.35;2.50;;;10.40;95.90;;;;;;6184443;23;20006;-64
2021/05/26 02:39:24;;;;;;;2.97;2.30;;;10.50;95.90;;;;;;6184595;23;20005;-64
2021/05/26 02:41:50;;;;;;;5.38;3.00;;;10.50;96.00;;;;;;6183175;23;20933;-64
2021/05/26 02:44:16;;;;;;;4.55;2.88;;;10.50;96.30;;;;;;6184128;23;20439;-64
2021/05/26 02:46:41;;;;;;;4.25;3.08;;;10.50;96.00;;;;;;6184176;23;20009;-66
2021/05/26 02:49:08;;;;;;;3.30;2.95;;;10.50;96.10;;;;;;6183484;23;20093;-64
2021/05/26 02:51:34;;;;;;;5.32;3.10;;;10.60;96.10;;;;;;6157418;23;20015;-64
2021/05/26 02:54:00;;;;;;;5.75;3.42;;;10.60;96.10;;;;;;6183916;23;19997;-65
2021/05/26 02:56:27;;;;;;;4.07;2.88;;;10.60;95.90;;;;;;6183579;23;20001;-65
2021/05/26 02:58:52;;;;;;;5.50;3.47;;;10.50;95.90;;;;;;6184077;23;20276;-66
2021/05/26 03:01:18;;;;;;;3.47;3.17;;;10.50;96.00;;;;;;6184168;23;20769;-67
2021/05/26 03:03:44;;;;;;;5.93;2.97;;;10.50;96.00;;;;;;6183172;23;19997;-68
2021/05/26 03:06:09;;;;;;;6.90;3.53;;;10.50;96.00;;;;;;6184181;23;20055;-67
2021/05/26 03:08:35;;;;;;;4.53;3.75;;;10.50;95.90;;;;;;6182831;23;20001;-67
2021/05/26 03:11:01;;;;;;;7.10;3.67;;;10.50;95.90;;;;;;6183899;23;20458;-67
2021/05/26 03:13:28;;;;;;;9.13;3.50;;;10.50;95.80;;;;;;6157810;23;20067;-67
2021/05/26 03:15:53;;;;;;;6.47;3.90;;;10.50;95.90;;;;;;6182980;23;20717;-68
2021/05/26 03:18:20;;;;;;;6.78;4.28;;;10.50;96.00;;;;;;6183668;23;20060;-67
2021/05/26 03:20:46;;;;;;;5.40;4.03;;;10.40;95.80;;;;;;6183629;23;20001;-67
2021/05/26 03:23:13;;;;;;;7.13;4.75;;;10.40;96.00;;;;;;6183056;23;20001;-67
2021/05/26 03:25:39;;;;;;;7.30;4.93;;;10.40;95.90;;;;;;6183387;23;20020;-68
2021/05/26 03:28:04;;;;;;;10.65;5.93;;;10.40;96.00;;;;;;6184210;23;20009;-65
2021/05/26 03:30:31;;;;;;;7.90;5.38;;;10.50;96.10;;;;;;6183145;23;20407;-65
2021/05/26 03:32:57;;;;;;;7.05;5.80;;;10.60;96.10;;;;;;6183585;23;20076;-67
2021/05/26 03:35:23;;;;;;;9.77;6.07;;;10.60;96.10;;;;;;6183878;23;20029;-67
2021/05/26 03:37:49;;;;;;;12.30;8.02;;;10.60;96.10;;;;;;6182681;23;20005;-67
2021/05/26 03:40:17;;;;;;;13.95;7.90;;;10.60;96.00;;;;;;6183406;23;20009;-64
2021/05/26 03:42:43;;;;;;;14.57;8.57;;;10.70;96.10;;;;;;6183334;23;20077;-64
2021/05/26 03:45:11;;;;;;;13.68;8.80;;;10.70;96.10;;;;;;6182858;23;20005;-63
2021/05/26 03:47:38;;;;;;;11.70;8.60;;;10.70;96.00;;;;;;6183366;23;20116;-66
2021/05/26 03:50:05;;;;;;;16.40;8.40;;;10.70;96.00;;;;;;6183604;23;20059;-64
2021/05/26 03:52:31;;;;;;;9.52;7.70;;;10.70;95.90;;;;;;6182451;23;20013;-65
2021/05/26 03:54:57;;;;;;;16.73;9.23;;;10.70;96.00;;;;;;6183392;23;20056;-65
2021/05/26 03:57:22;;;;;;;16.38;8.48;;;10.70;96.10;;;;;;6183877;23;20001;-65
2021/05/26 03:59:48;;;;;;;13.10;8.95;;;10.80;96.20;;;;;;6182471;23;20239;-64
2021/05/26 04:02:13;;;;;;;14.25;9.35;;;10.80;96.20;;;;;;6183497;23;20005;-65
2021/05/26 04:04:41;;;;;;;20.95;11.10;;;10.80;96.20;;;;;;6182674;23;20001;-66
2021/05/26 04:07:06;;;;;;;15.68;10.35;;;10.70;96.10;;;;;;6182422;23;20046;-65
2021/05/26 04:09:32;;;;;;;15.23;9.65;;;10.80;96.20;;;;;;6183087;23;20079;-64
2021/05/26 04:11:57;;;;;;;14.27;10.35;;;10.80;96.30;;;;;;6182606;23;20333;-65
2021/05/26 04:14:23;;;;;;;16.45;10.30;;;10.90;96.30;;;;;;6183570;23;20322;-65
2021/05/26 04:16:49;;;;;;;20.25;10.32;;;10.90;96.30;;;;;;6182933;23;20437;-65
2021/05/26 04:19:14;;;;;;;16.67;10.07;;;10.90;96.30;;;;;;6182472;23;20009;-64
2021/05/26 04:21:40;;;;;;;21.38;11.52;;;10.90;96.40;;;;;;6182811;23;20358;-65
2021/05/26 04:24:05;;;;;;;17.95;10.20;;;11.00;96.40;;;;;;6183088;23;20091;-66
2021/05/26 04:26:31;;;;;;;24.13;10.60;;;11.00;96.40;;;;;;6182040;23;20005;-64
2021/05/26 04:28:57;;;;;;;17.15;10.30;;;11.00;96.30;;;;;;6183315;23;20005;-65
2021/05/26 04:31:22;;;;;;;17.83;10.43;;;11.10;96.30;;;;;;6183546;23;20013;-66
2021/05/26 04:33:48;;;;;;;20.35;10.48;;;11.10;96.30;;;;;;6182174;23;20748;-64
2021/05/26 04:36:13;;;;;;;20.60;10.60;;;11.10;96.20;;;;;;6183051;23;20032;-64
2021/05/26 04:38:39;;;;;;;20.77;11.23;;;11.20;96.20;;;;;;6183174;23;20322;-64
2021/05/26 04:41:05;;;;;;;14.63;10.52;;;11.20;96.30;;;;;;6155753;23;20005;-64
2021/05/26 04:43:32;;;;;;;18.98;9.82;;;11.20;96.20;;;;;;6182805;23;20804;-65
2021/05/26 04:46:00;;;;;;;21.85;10.25;;;11.20;96.00;;;;;;6182953;23;20032;-65
2021/05/26 04:48:26;;;;;;;15.50;9.05;;;11.20;95.90;;;;;;6182339;23;20001;-65
2021/05/26 04:50:51;;;;;;;20.08;9.38;;;11.20;96.00;;;;;;6182473;23;20321;-65
2021/05/26 04:53:17;;;;;;;19.05;8.90;;;11.10;95.90;;;;;;6156474;23;20039;-65
2021/05/26 04:55:42;;;;;;;14.98;8.48;;;11.20;95.80;;;;;;6181959;23;20005;-67
2021/05/26 04:58:09;;;;;;;14.65;7.53;;;11.20;95.80;;;;;;6182840;23;20005;-66
2021/05/26 05:00:35;;;;;;;11.60;7.10;;;11.30;95.70;;;;;;6182764;23;20005;-67
2021/05/26 05:03:00;;;;;;;12.98;6.90;;;11.30;95.70;;;;;;6182143;23;20084;-65
2021/05/26 05:05:32;;;;;;;12.63;6.40;;;11.30;95.50;;;;;;6183175;23;20029;-67
2021/05/26 05:07:58;;;;;;;16.58;7.20;;;11.40;95.40;;;;;;6183046;23;20084;-68
2021/05/26 05:10:24;;;;;;;16.55;6.65;;;11.30;95.20;;;;;;6182359;23;20358;-67
2021/05/26 05:12:50;;;;;;;12.90;6.40;;;11.40;95.30;;;;;;6182722;23;20108;-66
2021/05/26 05:15:15;;;;;;;13.32;6.22;;;11.30;95.20;;;;;;6182072;23;20068;-65
2021/05/26 05:17:44;;;;;;;15.77;6.22;;;11.30;95.30;;;;;;6182961;23;20128;-67
2021/05/26 05:20:10;;;;;;;13.85;6.53;;;11.20;95.40;;;;;;6185008;23;20054;-67
2021/05/26 05:22:36;;;;;;;13.98;5.72;;;11.20;95.50;;;;;;6183907;23;20005;-68
2021/05/26 05:25:01;;;;;;;13.43;6.22;;;11.20;95.50;;;;;;6184669;23;20514;-67
2021/05/26 05:27:27;;;;;;;16.35;7.05;;;11.20;95.60;;;;;;6185597;23;20377;-67
2021/05/26 05:29:52;;;;;;;12.68;5.68;;;11.20;95.40;;;;;;6184143;23;20015;-67
2021/05/26 05:32:18;;;;;;;15.20;5.72;;;11.30;95.40;;;;;;6184805;23;20102;-67
2021/05/26 05:34:43;;;;;;;14.32;6.78;;;11.30;95.40;;;;;;6184322;23;19997;-64
2021/05/26 05:37:09;;;;;;;14.57;7.18;;;11.40;95.30;;;;;;6184239;23;20109;-66
2021/05/26 05:39:35;;;;;;;14.27;6.43;;;11.60;95.20;;;;;;6184551;23;19997;-65
2021/05/26 05:42:00;;;;;;;15.73;6.57;;;11.70;95.00;;;;;;6184661;23;20032;-67
2021/05/26 05:44:26;;;;;;;10.82;6.00;;;11.80;94.80;;;;;;6184208;23;19997;-67
2021/05/26 05:46:51;;;;;;;12.32;5.90;;;11.90;94.70;;;;;;6184297;23;20032;-68
2021/05/26 05:49:17;;;;;;;11.57;6.05;;;11.90;94.60;;;;;;6184617;23;20005;-66
2021/05/26 05:51:42;;;;;;;12.60;6.13;;;11.80;94.50;;;;;;6183594;23;20093;-64
2021/05/26 05:54:08;;;;;;;13.05;5.93;;;11.80;94.70;;;;;;6184885;23;20369;-65
2021/05/26 05:56:34;;;;;;;14.43;6.43;;;11.70;94.70;;;;;;6180635;23;20012;-65
2021/05/26 05:58:59;;;;;;;11.05;5.90;;;11.70;94.70;;;;;;6183164;23;20008;-65
2021/05/26 06:01:24;;;;;;;13.23;5.65;;;11.70;94.60;;;;;;6183438;23;20008;-69
2021/05/26 06:03:50;;;;;;;12.27;6.53;;;11.70;94.50;;;;;;6182820;23;20033;-70
2021/05/26 06:06:16;;;;;;;13.73;6.70;;;11.70;94.50;;;;;;6182395;23;20005;-69
2021/05/26 06:08:41;;;;;;;10.20;5.97;;;11.70;94.50;;;;;;6183885;23;20330;-67
2021/05/26 06:11:08;;;;;;;10.82;6.30;;;11.70;94.50;;;;;;6183783;23;20041;-65
2021/05/26 06:13:33;;;;;;;11.13;6.68;;;11.70;94.50;;;;;;6182477;23;20059;-67
2021/05/26 06:15:59;;;;;;;12.77;6.00;;;11.70;94.60;;;;;;6184001;23;20422;-64
2021/05/26 06:18:24;;;;;;;10.57;6.22;;;11.70;94.70;;;;;;6183468;23;20024;-66
2021/05/26 06:20:50;;;;;;;12.30;6.47;;;11.80;94.70;;;;;;6183529;23;20001;-66
2021/05/26 06:23:15;;;;;;;13.60;7.45;;;11.90;94.60;;;;;;6184120;23;20009;-66
2021/05/26 06:25:41;;;;;;;16.60;7.47;;;11.90;94.60;;;;;;6183060;23;20013;-64
2021/05/26 06:28:07;;;;;;;12.00;6.15;;;12.00;94.60;;;;;;6184170;23;20362;-64
2021/05/26 06:30:32;;;;;;;12.57;6.65;;;12.10;94.40;;;;;;6183266;23;19997;-67
2021/05/26 06:32:58;;;;;;;13.57;6.80;;;12.10;94.30;;;;;;6183352;23;20004;-67
2021/05/26 06:35:23;;;;;;;14.23;7.10;;;12.00;94.10;;;;;;6183381;23;20085;-67
2021/05/26 06:37:49;;;;;;;14.02;6.78;;;12.00;94.30;;;;;;6183417;23;20009;-65
2021/05/26 06:40:15;;;;;;;14.60;7.30;;;12.00;94.10;;;;;;6156242;23;20005;-64
2021/05/26 06:42:40;;;;;;;14.57;7.45;;;12.00;94.10;;;;;;6183204;23;19997;-68
2021/05/26 06:45:07;;;;;;;14.32;7.57;;;12.10;94.40;;;;;;6183521;23;20080;-67
2021/05/26 06:47:32;;;;;;;10.80;7.72;;;12.00;94.10;;;;;;6183096;23;20439;-66
2021/05/26 06:49:58;;;;;;;10.77;7.32;;;12.00;94.20;;;;;;6183541;23;20009;-64
2021/05/26 06:52:24;;;;;;;14.57;7.57;;;12.10;94.10;;;;;;6183936;23;20386;-65
2021/05/26 06:54:50;;;;;;;9.88;7.47;;;12.10;94.10;;;;;;6182723;23;19997;-67
2021/05/26 06:57:17;;;;;;;16.30;7.93;;;12.20;93.90;;;;;;6183587;23;20001;-65
2021/05/26 06:59:43;;;;;;;14.10;8.20;;;12.30;93.70;;;;;;6182211;23;20441;-68
2021/05/26 07:02:08;;;;;;;12.80;7.22;;;12.40;93.60;;;;;;6182814;23;20001;-69
2021/05/26 07:04:34;;;;;;;11.18;7.22;;;12.60;93.40;;;;;;6182852;23;20000;-67
2021/05/26 07:07:00;;;;;;;17.48;8.05;;;12.70;93.10;;;;;;6183351;23;20005;-71
2021/05/26 07:09:26;;;;;;;14.10;7.35;;;12.90;93.10;;;;;;6183233;23;19997;-71
2021/05/26 07:11:52;;;;;;;13.13;7.93;;;13.20;92.80;;;;;;6182988;23;20009;-71
2021/05/26 07:14:18;;;;;;;13.00;7.32;;;13.30;92.50;;;;;;6183260;23;20001;-70
2021/05/26 07:16:43;;;;;;;11.30;7.72;;;13.40;92.20;;;;;;6182193;23;20032;-71
2021/05/26 07:19:09;;;;;;;14.45;7.70;;;13.50;92.00;;;;;;6183463;23;19997;-70
2021/05/26 07:21:34;;;;;;;12.63;7.32;;;13.60;91.70;;;;;;6183320;23;20005;-66
2021/05/26 07:24:00;;;;;;;13.25;7.07;;;13.70;91.30;;;;;;6182709;23;20059;-67
2021/05/26 07:26:25;;;;;;;9.65;7.03;;;13.80;91.30;;;;;;6182948;23;20001;-70
2021/05/26 07:28:51;;;;;;;11.95;6.90;;;13.90;91.10;;;;;;6180328;23;20005;-69
2021/05/26 07:31:17;;;;;;;11.60;6.97;;;13.90;90.90;;;;;;6182479;23;20013;-67
2021/05/26 07:33:43;;;;;;;12.13;7.28;;;14.00;90.90;;;;;;6182766;23;20433;-65
2021/05/26 07:36:09;;;;;;;14.70;7.15;;;14.00;90.70;;;;;;6180261;23;20430;-64
2021/05/26 07:38:34;;;;;;;10.35;6.47;;;14.00;90.50;;;;;;6182031;23;19997;-65
2021/05/26 07:41:00;;;;;;;12.15;6.43;;;13.90;90.20;;;;;;6182687;23;20605;-69
2021/05/26 07:43:28;;;;;;;10.38;6.97;;;13.90;90.10;;;;;;6181892;23;20005;-64
2021/05/26 07:45:54;;;;;;;10.27;6.93;;;13.90;90.40;;;;;;6182839;23;20047;-65
2021/05/26 07:48:19;;;;;;;8.93;7.28;;;13.80;90.40;;;;;;6183041;23;20001;-64
2021/05/26 07:50:46;;;;;;;10.77;6.40;;;13.80;90.50;;;;;;6181163;23;20056;-61
2021/05/26 07:53:11;;;;;;;9.98;6.72;;;13.80;90.60;;;;;;6183151;23;20331;-61
2021/05/26 07:55:37;;;;;;;12.77;7.78;;;13.80;90.50;;;;;;6182463;23;20001;-66
2021/05/26 07:58:03;;;;;;;11.60;7.53;;;13.80;90.60;;;;;;6182265;23;20001;-64
2021/05/26 08:00:28;;;;;;;9.88;6.63;;;14.00;90.30;;;;;;6183487;23;19997;-63
2021/05/26 08:02:54;;;;;;;10.77;6.57;;;14.10;90.20;;;;;;6183009;23;20469;-63
2021/05/26 08:05:21;;;;;;;13.45;7.35;;;14.20;90.00;;;;;;6181825;23;20073;-64
2021/05/26 08:07:47;;;;;;;9.95;6.28;;;14.30;89.40;;;;;;6182672;23;20001;-65
2021/05/26 08:10:13;;;;;;;9.55;7.30;;;14.30;89.00;;;;;;6156464;23;20081;-64
2021/05/26 08:12:39;;;;;;;11.68;6.65;;;14.30;88.20;;;;;;6181251;23;20009;-69
2021/05/26 08:15:06;;;;;;;13.35;7.15;;;14.30;88.00;;;;;;6182428;23;20044;-66
2021/05/26 08:17:33;;;;;;;10.85;7.05;;;14.10;88.10;;;;;;6182644;23;20430;-65
2021/05/26 08:20:01;;;;;;;12.15;7.30;;;14.10;88.70;;;;;;6181739;23;20005;-66
2021/05/26 08:22:27;;;;;;;13.30;7.13;;;14.20;88.80;;;;;;6183014;23;20476;-66
2021/05/26 08:24:53;;;;;;;10.98;6.88;;;14.30;88.00;;;;;;6182331;23;20357;-66
2021/05/26 08:27:18;;;;;;;11.60;7.43;;;14.30;87.70;;;;;;6182269;23;20001;-68
2021/05/26 08:29:44;;;;;;;11.38;7.03;;;14.30;88.20;;;;;;6182403;23;20339;-65
2021/05/26 08:32:09;;;;;;;10.43;6.35;;;14.40;88.80;;;;;;6182007;23;20013;-68
2021/05/26 08:34:35;;;;;;;11.60;7.20;;;14.40;88.80;;;;;;6182290;23;20001;-66
2021/05/26 08:37:00;;;;;;;9.40;5.95;;;14.40;88.10;;;;;;6156135;23;20047;-64
2021/05/26 08:39:26;;;;;;;10.68;7.10;;;14.30;87.00;;;;;;6182387;23;20008;-67
2021/05/26 08:41:53;;;;;;;11.43;8.02;;;14.10;87.50;;;;;;6182754;23;20005;-68
2021/05/26 08:44:19;;;;;;;9.73;7.10;;;14.10;88.80;;;;;;6181416;23;20005;-65
2021/05/26 08:46:53;;;;;;;10.68;6.95;;;14.00;88.70;;;;;;6181100;23;20005;-66
2021/05/26 08:49:20;;;;;;;10.85;6.47;;;14.00;88.60;;;;;;6182377;23;20640;-64
2021/05/26 08:51:46;;;;;;;14.45;7.18;;;14.10;88.40;;;;;;6182289;23;20009;-65
2021/05/26 08:54:12;;;;;;;11.20;7.15;;;14.20;88.70;;;;;;6182074;23;20001;-64
2021/05/26 08:56:38;;;;;;;8.63;6.57;;;14.20;87.90;;;;;;6182564;23;20015;-67
2021/05/26 08:59:03;;;;;;;10.10;7.10;;;14.30;88.00;;;;;;6182609;23;20068;-65
2021/05/26 09:01:29;;;;;;;11.63;7.60;;;14.40;87.40;;;;;;6182269;23;20009;-65
2021/05/26 09:03:55;;;;;;;9.68;6.47;;;14.30;87.40;;;;;;6182393;23;20005;-65
2021/05/26 09:06:21;;;;;;;7.93;6.07;;;14.40;87.70;;;;;;6182822;23;20048;-66
2021/05/26 09:08:49;;;;;;;11.55;6.57;;;14.50;87.60;;;;;;6180853;23;20005;-67
2021/05/26 09:11:15;;;;;;;10.88;7.13;;;14.70;87.20;;;;;;6182086;23;20814;-68
2021/05/26 09:13:43;;;;;;;11.68;8.57;;;14.80;86.40;;;;;;6181442;23;20012;-65
2021/05/26 09:16:29;;;;;;;7.85;6.25;;;14.90;84.70;;;;;;6180729;23;19997;-66
2021/05/26 09:19:04;;;;;;;10.07;6.75;;;14.80;85.00;;;;;;6181196;23;20009;-64
2021/05/26 09:21:44;;;;;;;8.38;7.22;;;14.80;84.90;;;;;;6181488;23;20005;-64
2021/05/26 09:24:19;;;;;;;12.52;6.57;;;15.10;85.40;;;;;;6181624;23;20013;-65
2021/05/26 09:26:53;;;;;;;11.25;6.50;;;15.50;83.10;;;;;;6182108;23;20005;-64
2021/05/26 09:29:33;;;;;;;9.27;5.80;;;15.70;81.40;;;;;;6179640;23;20005;-67
2021/05/26 09:32:22;;;;;;;8.75;6.43;;;15.90;80.00;;;;;;6182376;23;20009;-63
2021/05/26 09:34:59;;;;;;;9.77;5.68;;;15.90;80.10;;;;;;6181948;23;20001;-64
2021/05/26 09:37:30;;;;;;;8.07;5.57;;;15.90;80.70;;;;;;6181469;23;20009;-66
2021/05/26 09:39:57;;;;;;;12.63;5.90;;;16.10;80.50;;;;;;6155723;23;20005;-64
2021/05/26 09:42:36;;;;;;;9.18;5.60;;;16.10;78.50;;;;;;6182134;23;20001;-64
2021/05/26 09:45:20;;;;;;;9.95;5.75;;;16.00;78.30;;;;;;6181996;23;20088;-66
2021/05/26 09:47:51;;;;;;;10.07;6.07;;;15.90;78.60;;;;;;6182313;23;19997;-65
2021/05/26 09:50:27;;;;;;;8.05;5.72;;;15.70;79.30;;;;;;6155184;23;20001;-67
2021/05/26 09:52:57;;;;;;;10.30;6.07;;;15.70;80.00;;;;;;6182034;23;20801;-68
2021/05/26 09:55:29;;;;;;;9.68;6.18;;;15.80;80.40;;;;;;6181400;23;20304;-68
2021/05/26 09:57:56;;;;;;;9.07;6.10;;;15.80;78.90;;;;;;6179921;23;20598;-67
2021/05/26 10:00:22;;;;;;;8.73;5.03;;;15.90;78.70;;;;;;6154271;23;20002;-62
2021/05/26 10:02:48;;;;;;;11.98;5.63;;;16.10;78.40;;;;;;6180533;23;20009;-63
2021/05/26 10:05:16;;;;;;;6.95;4.63;;;16.10;75.40;;;;;;6180954;23;19997;-64
2021/05/26 10:07:43;;;;;;;9.13;4.95;;;16.00;74.60;;;;;;6182947;23;20084;-67
2021/05/26 10:10:10;;;;;;;7.25;4.40;;;15.90;75.30;;;;;;6183117;23;20048;-65
2021/05/26 10:12:39;;;;;;;10.40;5.65;;;15.90;76.20;;;;;;6182701;23;20418;-66
2021/05/26 10:15:09;;;;;;;8.23;5.35;;;16.10;77.20;;;;;;6182883;23;20024;-66
2021/05/26 10:17:39;;;;;;;8.68;4.75;;;16.30;75.50;;;;;;6182875;23;20013;-68
2021/05/26 10:20:08;;;;;;;6.60;4.65;;;16.50;74.70;;;;;;6157529;23;20326;-65
2021/05/26 10:22:36;;;;;;;8.00;4.65;;;16.50;74.00;;;;;;6183144;23;20007;-64
2021/05/26 10:25:03;;;;;;;3.78;2.13;;;16.40;73.80;;;;;;6180131;23;20017;-65
2021/05/26 10:27:34;;;;;;;2.90;1.40;;;16.10;70.60;;;;;;6157038;23;20337;-63
2021/05/26 10:30:01;;;;;;;2.25;1.10;;;15.40;70.10;;;;;;6182705;23;19997;-64
2021/05/26 10:32:29;;;;;;;4.57;2.47;;;14.80;72.20;;;;;;6180367;23;20343;-67
2021/05/26 10:34:54;;;;;;;5.25;1.80;;;14.20;74.40;;;;;;6181730;23;19997;-65
2021/05/26 10:37:24;;;;;;;5.93;1.85;;;13.70;77.50;;;;;;6156378;23;20005;-64
2021/05/26 10:39:50;;;;;;;3.35;1.98;;;13.30;82.80;;;;;;6183268;23;20380;-68
2021/05/26 10:42:30;;;;;;;3.85;1.70;;;12.80;85.80;;;;;;6183222;23;20326;-65
2021/05/26 10:45:02;;;;;;;2.15;1.40;;;12.40;89.60;;;;;;6156232;23;20076;-66
2021/05/26 10:47:37;;;;;;;6.38;1.70;;;12.00;90.30;;;;;;6183578;23;20012;-66
2021/05/26 10:50:04;;;;;;;2.17;1.55;;;11.70;91.10;;;;;;6182593;23;20048;-67
2021/05/26 10:52:54;;;;;;;2.65;1.60;;;11.50;91.40;;;;;;6182382;23;20012;-66
2021/05/26 10:55:38;;;;;;;4.45;2.13;;;11.30;91.90;;;;;;6183020;23;20051;-67
2021/05/26 10:58:39;;;;;;;3.25;2.00;;;11.20;92.50;;;;;;6182932;23;20075;-68
2021/05/26 11:01:04;;;;;;;5.35;2.17;;;11.40;92.80;;;;;;6138033;23;20473;-64
2021/05/26 11:03:36;;;;;;;3.85;2.50;;;11.60;92.10;;;;;;6183955;23;20001;-65
2021/05/26 11:06:02;;;;;;;;;;;11.70;92.50;;;;;;6183524;23;20056;-64
2021/05/26 11:08:43;;;;;;;4.97;2.53;;;11.80;92.30;;;;;;6184037;23;19904;-67
2021/05/26 11:11:39;;;;;;;4.53;2.45;;;11.90;92.20;;;;;;6183571;23;20326;-65
2021/05/26 11:14:11;;;;;;;5.30;2.33;;;12.10;92.30;;;;;;6181743;23;20012;-63
2021/05/26 11:16:41;;;;;;;4.07;2.38;;;12.30;92.60;;;;;;6182597;23;20308;-64
2021/05/26 11:19:13;;;;;;;3.63;2.08;;;12.60;92.30;;;;;;6156731;23;20009;-65
2021/05/26 11:21:41;;;;;;;3.67;1.90;;;12.90;91.90;;;;;;6182763;23;19997;-64
2021/05/26 11:24:07;;;;;;;6.32;2.00;;;13.30;91.00;;;;;;6183114;23;20048;-66
2021/05/26 11:26:35;;;;;;;6.18;1.95;;;13.50;90.80;;;;;;6155320;23;20005;-66
2021/05/26 11:29:01;;;;;;;3.63;1.95;;;13.80;90.60;;;;;;6182316;23;20004;-67
2021/05/26 11:31:26;;;;;;;2.83;1.90;;;14.10;90.30;;;;;;6157155;23;20450;-68
2021/05/26 11:33:59;;;;;;;3.63;1.83;;;14.30;90.10;;;;;;6182174;23;20001;-64
2021/05/26 11:36:41;;;;;;;3.45;1.70;;;14.50;90.00;;;;;;6183576;23;20012;-63
2021/05/26 11:39:27;;;;;;;3.85;1.55;;;14.70;88.60;;;;;;6183070;23;20035;-68
2021/05/26 11:42:06;;;;;;;3.60;1.50;;;14.80;88.60;;;;;;6182313;23;20009;-69
2021/05/26 11:44:40;;;;;;;3.60;2.00;;;14.80;87.80;;;;;;6182544;23;20427;-64
2021/05/26 11:47:06;;;;;;;4.18;1.70;;;14.60;87.60;;;;;;6183403;23;20029;-65
2021/05/26 11:49:35;;;;;;;3.95;1.67;;;14.30;87.30;;;;;;6181777;23;20056;-67
2021/05/26 11:52:05;;;;;;;4.85;2.00;;;14.20;88.10;;;;;;6183137;23;20808;-65
2021/05/26 11:54:31;;;;;;;5.57;2.00;;;14.10;89.30;;;;;;6155670;23;20008;-63
2021/05/26 11:57:03;;;;;;;2.95;2.22;;;14.10;89.60;;;;;;6181235;23;20055;-66
2021/05/26 11:59:29;;;;;;;2.53;1.73;;;14.10;89.20;;;;;;6156229;23;20005;-64
2021/05/26 12:01:54;;;;;;;6.72;2.85;;;14.00;88.40;;;;;;6181779;23;20315;-66
2021/05/26 12:04:21;;;;;;;3.35;2.25;;;13.90;89.00;;;;;;6182157;23;20710;-66
2021/05/26 12:06:47;;;;;;;4.00;2.10;;;13.90;90.10;;;;;;6182465;23;20009;-65
2021/05/26 12:09:27;;;;;;;6.47;2.80;;;13.80;90.40;;;;;;6155569;23;20023;-68
2021/05/26 12:11:53;;;;;;;3.72;2.83;;;13.70;90.30;;;;;;6182332;23;20052;-69
2021/05/26 12:14:32;;;;;;;4.97;2.50;;;13.70;90.50;;;;;;6181567;23;20001;-66
2021/05/26 12:16:59;;;;;;;7.47;2.97;;;13.70;90.80;;;;;;6181926;23;20004;-66
2021/05/26 12:19:32;;;;;;;7.15;2.97;;;13.90;91.00;;;;;;6182215;23;20001;-67
2021/05/26 12:22:17;;;;;;;3.85;2.65;;;14.10;91.20;;;;;;6181700;23;20427;-67
2021/05/26 12:24:53;;;;;;;5.65;2.95;;;14.30;91.10;;;;;;6179720;23;20052;-66
2021/05/26 12:27:37;;;;;;;8.02;2.55;;;14.70;90.80;;;;;;6182731;23;20597;-67
2021/05/26 12:30:12;;;;;;;2.13;1.80;;;15.10;89.20;;;;;;6181315;23;20128;-67
2021/05/26 12:32:38;;;;;;;4.32;2.00;;;15.60;87.30;;;;;;6155003;23;20510;-67
2021/05/26 12:35:10;;;;;;;4.15;2.05;;;16.00;85.30;;;;;;6182916;23;20032;-66
2021/05/26 12:37:46;;;;;;;3.63;3.13;;;16.20;82.00;;;;;;6181327;23;20008;-66
2021/05/26 12:40:39;;;;;;;4.40;1.60;;;16.30;79.10;;;;;;6182014;23;20072;-66
2021/05/26 12:43:25;;;;;;;2.90;1.70;;;16.10;79.50;;;;;;6178747;23;20009;-66